createdAt,value
2023-02-22T00:00:43.508Z,48.63
2023-02-22T00:01:51.330Z,50.80
2023-02-22T00:03:00.133Z,47.85
2023-02-22T00:04:04.912Z,55.85
2023-02-22T00:05:07.501Z,49.28
2023-02-22T00:06:17.347Z,46.45
2023-02-22T00:07:21.545Z,57.85
2023-02-22T00:08:30.619Z,47.15
2023-02-22T00:09:33.190Z,45.83
2023-02-22T00:10:38.596Z,46.47
2023-02-22T00:11:46.672Z,48.67
2023-02-22T00:12:49.525Z,50.58
2023-02-22T00:13:52.046Z,48.80
2023-02-22T00:14:54.680Z,48.80
2023-02-22T00:15:58.299Z,51.00
2023-02-22T00:17:00.935Z,45.83
2023-02-22T00:18:05.147Z,52.80
2023-02-22T00:19:07.884Z,46.50
2023-02-22T00:20:14.498Z,54.10
2023-02-22T00:21:18.326Z,44.97
2023-02-22T00:22:21.330Z,46.50
2023-02-22T00:23:25.534Z,53.35
2023-02-22T00:24:29.646Z,51.30
2023-02-22T00:25:32.617Z,57.60
2023-02-22T00:26:35.646Z,46.22
2023-02-22T00:27:38.742Z,48.72
2023-02-22T00:28:42.699Z,55.17
2023-02-22T00:29:47.269Z,43.55
2023-02-22T00:30:51.344Z,49.13
2023-02-22T00:31:57.303Z,49.25
2023-02-22T00:33:01.193Z,48.75
2023-02-22T00:34:04.309Z,49.85
2023-02-22T00:35:08.631Z,53.92
2023-02-22T00:36:14.164Z,52.90
2023-02-22T00:37:17.272Z,49.67
2023-02-22T00:38:20.552Z,49.40
2023-02-22T00:39:23.637Z,52.38
2023-02-22T00:40:32.160Z,48.20
2023-02-22T00:41:35.320Z,55.65
2023-02-22T00:42:39.241Z,52.58
2023-02-22T00:43:42.485Z,52.92
2023-02-22T00:44:45.969Z,56.75
2023-02-22T00:45:49.601Z,45.05
2023-02-22T00:46:54.013Z,50.72
2023-02-22T00:47:59.172Z,49.15
2023-02-22T00:49:02.416Z,51.67
2023-02-22T00:50:06.140Z,56.05
2023-02-22T00:51:09.378Z,51.83
2023-02-22T00:52:12.864Z,50.63
2023-02-22T00:53:16.820Z,55.47
2023-02-22T00:54:21.140Z,48.22
2023-02-22T00:55:27.627Z,46.17
2023-02-22T00:56:31.105Z,47.15
2023-02-22T00:57:35.547Z,50.53
2023-02-22T00:58:38.672Z,53.03
2023-02-22T00:59:41.930Z,55.25
2023-02-22T01:00:45.397Z,49.00
2023-02-22T01:01:50.385Z,51.75
2023-02-22T01:02:56.194Z,54.80
2023-02-22T01:03:59.568Z,49.85
2023-02-22T01:05:02.679Z,47.50
2023-02-22T01:06:06.041Z,47.42
2023-02-22T01:07:09.162Z,52.50
2023-02-22T01:08:13.640Z,49.47
2023-02-22T01:09:16.141Z,47.78
2023-02-22T01:10:21.410Z,52.70
2023-02-22T01:11:24.048Z,54.30
2023-02-22T01:12:27.650Z,49.63
2023-02-22T01:13:30.290Z,49.55
2023-02-22T01:14:35.142Z,48.05
2023-02-22T01:15:40.186Z,50.55
2023-02-22T01:16:44.578Z,46.60
2023-02-22T01:17:48.298Z,46.40
2023-02-22T01:18:51.604Z,56.47
2023-02-22T01:19:54.901Z,46.50
2023-02-22T01:20:57.425Z,52.13
2023-02-22T01:22:00.082Z,46.80
2023-02-22T01:23:04.069Z,45.35
2023-02-22T01:24:07.274Z,42.80
2023-02-22T01:25:11.876Z,47.25
2023-02-22T01:26:14.390Z,51.00
2023-02-22T01:27:18.241Z,53.53
2023-02-22T01:28:22.691Z,46.40
2023-02-22T01:29:25.913Z,54.90
2023-02-22T01:30:33.037Z,51.00
2023-02-22T01:31:35.988Z,47.78
2023-02-22T01:32:42.472Z,45.47
2023-02-22T01:33:45.245Z,47.10
2023-02-22T01:34:47.756Z,43.95
2023-02-22T01:35:51.361Z,50.17
2023-02-22T01:36:53.971Z,48.17
2023-02-22T01:37:58.274Z,42.58
2023-02-22T01:39:01.055Z,43.42
2023-02-22T01:40:07.415Z,45.45
2023-02-22T01:41:10.079Z,43.53
2023-02-22T01:42:12.719Z,43.20
2023-02-22T01:43:35.400Z,46.00
2023-02-22T01:44:40.199Z,44.38
2023-02-22T01:45:47.948Z,44.38
2023-02-22T01:46:50.652Z,44.88
2023-02-22T01:47:53.884Z,45.67
2023-02-22T01:49:01.804Z,44.10
2023-02-22T01:50:04.440Z,47.58
2023-02-22T01:51:14.946Z,46.78
2023-02-22T01:52:21.122Z,44.78
2023-02-22T01:53:37.572Z,41.00
2023-02-22T01:54:46.447Z,39.08
2023-02-22T01:55:50.805Z,40.25
2023-02-22T01:57:09.014Z,43.38
2023-02-22T01:58:12.971Z,43.90
2023-02-22T01:59:15.607Z,44.22
2023-02-22T02:00:21.501Z,50.05
2023-02-22T02:01:26.290Z,44.97
2023-02-22T02:02:29.060Z,38.72
2023-02-22T02:03:35.806Z,46.03
2023-02-22T02:04:38.428Z,52.40
2023-02-22T02:05:41.921Z,45.35
2023-02-22T02:06:45.980Z,44.38
2023-02-22T02:07:49.450Z,44.20
2023-02-22T02:09:20.553Z,44.08
2023-02-22T02:10:24.506Z,44.50
2023-02-22T02:11:27.633Z,41.75
2023-02-22T02:12:36.397Z,43.15
2023-02-22T02:13:39.029Z,39.15
2023-02-22T02:14:42.746Z,51.35
2023-02-22T02:15:45.998Z,47.55
2023-02-22T02:16:53.369Z,41.90
2023-02-22T02:18:00.874Z,53.85
2023-02-22T02:19:06.159Z,47.80
2023-02-22T02:20:17.555Z,42.45
2023-02-22T02:21:34.850Z,44.35
2023-02-22T02:23:01.119Z,44.55
2023-02-22T02:24:18.774Z,41.85
2023-02-22T02:25:40.016Z,44.47
2023-02-22T02:27:01.487Z,46.42
2023-02-22T02:28:22.851Z,52.38
2023-02-22T02:29:43.732Z,50.45
2023-02-22T02:31:13.257Z,50.15
2023-02-22T02:32:22.571Z,48.05
2023-02-22T02:33:34.623Z,52.67
2023-02-22T02:34:55.983Z,58.20
2023-02-22T02:36:09.423Z,54.72
2023-02-22T02:37:18.909Z,55.33
2023-02-22T02:38:55.937Z,56.75
2023-02-22T02:40:22.055Z,53.58
2023-02-22T02:41:38.713Z,61.45
2023-02-22T02:43:26.837Z,56.78
2023-02-22T02:44:52.404Z,54.50
2023-02-22T02:46:04.887Z,53.60
2023-02-22T02:47:20.072Z,63.97
2023-02-22T02:48:28.645Z,70.03
2023-02-22T02:49:40.286Z,64.93
2023-02-22T02:50:49.658Z,58.58
2023-02-22T02:51:56.371Z,62.75
2023-02-22T02:53:03.812Z,59.35
2023-02-22T02:54:08.373Z,58.13
2023-02-22T02:55:13.656Z,55.13
2023-02-22T02:56:18.338Z,59.22
2023-02-22T02:57:25.299Z,57.67
2023-02-22T02:58:28.780Z,65.07
2023-02-22T02:59:35.743Z,54.83
2023-02-22T03:00:42.825Z,67.70
2023-02-22T03:02:06.585Z,58.40
2023-02-22T03:03:45.950Z,63.08
2023-02-22T03:05:07.687Z,63.60
2023-02-22T03:06:29.403Z,56.78
2023-02-22T03:07:39.762Z,61.05
2023-02-22T03:09:02.651Z,59.65
2023-02-22T03:10:13.437Z,56.63
2023-02-22T03:12:48.126Z,56.20
2023-02-22T03:14:07.447Z,65.65
2023-02-22T03:15:10.021Z,67.50
2023-02-22T03:16:43.792Z,67.03
2023-02-22T03:18:01.455Z,56.05
2023-02-22T03:19:07.097Z,58.13
2023-02-22T03:20:39.263Z,70.13
2023-02-22T03:22:14.227Z,62.95
2023-02-22T03:23:25.585Z,68.22
2023-02-22T03:24:43.148Z,71.68
2023-02-22T03:25:53.953Z,69.65
2023-02-22T03:27:09.487Z,64.18
2023-02-22T03:28:18.561Z,61.80
2023-02-22T03:29:26.356Z,66.78
2023-02-22T03:30:38.032Z,63.97
2023-02-22T03:31:51.347Z,62.78
2023-02-22T03:33:02.476Z,62.20
2023-02-22T03:34:11.805Z,63.35
2023-02-22T03:35:37.644Z,68.38
2023-02-22T03:36:46.877Z,57.17
2023-02-22T03:37:58.619Z,68.40
2023-02-22T03:39:04.427Z,64.22
2023-02-22T03:40:16.529Z,62.78
2023-02-22T03:41:27.082Z,59.42
2023-02-22T03:42:35.217Z,57.13
2023-02-22T03:43:46.294Z,65.80
2023-02-22T03:44:54.447Z,64.05
2023-02-22T03:45:58.882Z,58.13
2023-02-22T03:47:06.813Z,61.08
2023-02-22T03:48:54.451Z,64.43
2023-02-22T03:50:16.652Z,54.33
2023-02-22T03:51:19.604Z,64.65
2023-02-22T03:52:26.858Z,59.75
2023-02-22T03:53:30.690Z,72.80
2023-02-22T03:54:35.180Z,57.92
2023-02-22T03:55:38.373Z,62.80
2023-02-22T03:56:48.968Z,52.13
2023-02-22T03:57:58.658Z,53.80
2023-02-22T03:59:07.061Z,53.78
2023-02-22T04:00:12.464Z,57.72
2023-02-22T04:01:20.137Z,55.55
2023-02-22T04:02:23.859Z,54.17
2023-02-22T04:03:26.974Z,47.97
2023-02-22T04:04:30.636Z,56.55
2023-02-22T04:05:34.427Z,48.40
2023-02-22T04:06:37.900Z,46.50
2023-02-22T04:07:41.741Z,48.83
2023-02-22T04:08:44.619Z,54.65
2023-02-22T04:09:47.271Z,55.42
2023-02-22T04:10:51.825Z,51.00
2023-02-22T04:11:57.233Z,50.28
2023-02-22T04:12:59.876Z,46.95
2023-02-22T04:14:02.511Z,44.65
2023-02-22T04:15:08.029Z,45.13
2023-02-22T04:16:10.948Z,42.78
2023-02-22T04:17:13.572Z,41.55
2023-02-22T04:18:16.075Z,48.13
2023-02-22T04:19:20.757Z,42.47
2023-02-22T04:20:25.783Z,48.25
2023-02-22T04:21:34.320Z,46.42
2023-02-22T04:22:38.041Z,51.58
2023-02-22T04:23:40.571Z,38.35
2023-02-22T04:24:43.929Z,39.25
2023-02-22T04:25:46.810Z,40.47
2023-02-22T04:26:52.450Z,38.63
2023-02-22T04:27:56.772Z,47.60
2023-02-22T04:29:13.335Z,45.17
2023-02-22T04:30:21.073Z,45.65
2023-02-22T04:31:24.784Z,39.33
2023-02-22T04:32:29.904Z,47.20
2023-02-22T04:33:32.902Z,42.88
2023-02-22T04:34:36.022Z,37.53
2023-02-22T04:35:39.505Z,44.33
2023-02-22T04:36:45.631Z,38.92
2023-02-22T04:37:48.866Z,43.30
2023-02-22T04:38:52.947Z,37.75
2023-02-22T04:39:56.125Z,37.70
2023-02-22T04:40:59.207Z,37.78
2023-02-22T04:42:03.397Z,39.10
2023-02-22T04:43:06.521Z,40.65
2023-02-22T04:44:09.635Z,34.50
2023-02-22T04:45:13.721Z,34.33
2023-02-22T04:46:17.332Z,40.33
2023-02-22T04:47:20.586Z,32.50
2023-02-22T04:48:23.804Z,40.28
2023-02-22T04:49:27.526Z,38.85
2023-02-22T04:50:31.846Z,41.90
2023-02-22T04:51:36.287Z,35.53
2023-02-22T04:52:42.894Z,32.42
2023-02-22T04:53:47.099Z,36.40
2023-02-22T04:54:51.202Z,42.42
2023-02-22T04:55:54.896Z,31.70
2023-02-22T04:56:58.137Z,36.58
2023-02-22T04:58:01.622Z,32.92
2023-02-22T04:59:04.740Z,31.77
2023-02-22T05:00:10.741Z,34.72
2023-02-22T05:01:15.831Z,32.70
2023-02-22T05:02:20.365Z,36.45
2023-02-22T05:03:23.706Z,31.17
2023-02-22T05:04:27.217Z,41.50
2023-02-22T05:05:30.313Z,33.05
2023-02-22T05:06:33.674Z,26.75
2023-02-22T05:07:36.799Z,36.83
2023-02-22T05:08:40.049Z,36.63
2023-02-22T05:09:43.158Z,40.33
2023-02-22T05:10:46.528Z,33.70
2023-02-22T05:11:49.760Z,32.65
2023-02-22T05:12:52.524Z,34.10
2023-02-22T05:13:55.404Z,34.53
2023-02-22T05:14:58.166Z,30.38
2023-02-22T05:16:00.883Z,34.42
2023-02-22T05:17:04.252Z,37.88
2023-02-22T05:18:07.103Z,31.92
2023-02-22T05:19:09.696Z,33.55
2023-02-22T05:20:23.018Z,34.60
2023-02-22T05:21:25.704Z,34.47
2023-02-22T05:22:28.298Z,34.28
2023-02-22T05:23:31.179Z,31.10
2023-02-22T05:24:34.183Z,42.97
2023-02-22T05:25:36.825Z,31.52
2023-02-22T05:26:40.588Z,32.95
2023-02-22T05:27:43.186Z,38.03
2023-02-22T05:28:45.949Z,36.83
2023-02-22T05:29:48.953Z,27.75
2023-02-22T05:30:51.756Z,33.95
2023-02-22T05:31:54.517Z,39.10
2023-02-22T05:32:57.278Z,35.38
2023-02-22T05:33:59.916Z,34.67
2023-02-22T05:35:02.823Z,31.15
2023-02-22T05:36:07.873Z,37.90
2023-02-22T05:37:10.563Z,33.28
2023-02-22T05:38:15.253Z,34.17
2023-02-22T05:39:17.932Z,33.42
2023-02-22T05:40:22.808Z,36.72
2023-02-22T05:41:25.479Z,30.55
2023-02-22T05:42:28.124Z,32.15
2023-02-22T05:43:30.733Z,35.35
2023-02-22T05:44:33.409Z,33.10
2023-02-22T05:45:36.404Z,36.28
2023-02-22T05:46:39.147Z,39.42
2023-02-22T05:47:41.910Z,33.53
2023-02-22T05:48:44.573Z,33.17
2023-02-22T05:49:47.328Z,31.00
2023-02-22T05:50:50.240Z,30.50
2023-02-22T05:51:52.970Z,32.97
2023-02-22T05:52:55.854Z,32.83
2023-02-22T05:53:58.609Z,33.85
2023-02-22T05:55:01.394Z,34.05
2023-02-22T05:56:04.521Z,35.53
2023-02-22T05:57:07.975Z,33.35
2023-02-22T05:58:10.642Z,31.63
2023-02-22T05:59:13.378Z,29.05
2023-02-22T06:00:19.489Z,33.75
2023-02-22T06:01:22.269Z,32.63
2023-02-22T06:02:24.905Z,30.08
2023-02-22T06:03:27.535Z,31.38
2023-02-22T06:04:30.654Z,28.33
2023-02-22T06:05:33.469Z,29.08
2023-02-22T06:06:36.654Z,31.77
2023-02-22T06:07:39.303Z,32.47
2023-02-22T06:08:41.939Z,33.42
2023-02-22T06:09:44.455Z,32.78
2023-02-22T06:10:46.977Z,37.80
2023-02-22T06:11:49.499Z,32.80
2023-02-22T06:12:52.592Z,31.40
2023-02-22T06:13:55.259Z,31.63
2023-02-22T06:14:57.784Z,30.00
2023-02-22T06:16:00.315Z,36.05
2023-02-22T06:17:03.310Z,36.78
2023-02-22T06:18:05.951Z,31.85
2023-02-22T06:19:08.591Z,35.67
2023-02-22T06:20:14.710Z,30.27
2023-02-22T06:21:18.110Z,29.50
2023-02-22T06:22:20.844Z,32.22
2023-02-22T06:23:23.715Z,36.38
2023-02-22T06:24:26.716Z,38.28
2023-02-22T06:25:34.052Z,34.45
2023-02-22T06:26:36.686Z,32.55
2023-02-22T06:27:39.444Z,37.67
2023-02-22T06:28:42.084Z,33.72
2023-02-22T06:29:47.018Z,34.22
2023-02-22T06:30:49.794Z,37.65
2023-02-22T06:31:52.892Z,34.58
2023-02-22T06:32:55.782Z,39.08
2023-02-22T06:33:58.658Z,34.67
2023-02-22T06:35:01.688Z,34.92
2023-02-22T06:36:05.615Z,38.13
2023-02-22T06:37:08.857Z,36.10
2023-02-22T06:38:11.980Z,34.97
2023-02-22T06:39:16.062Z,32.33
2023-02-22T06:40:19.197Z,37.08
2023-02-22T06:41:22.304Z,32.75
2023-02-22T06:42:25.920Z,33.42
2023-02-22T06:43:29.028Z,33.25
2023-02-22T06:44:32.149Z,31.63
2023-02-22T06:45:35.401Z,31.40
2023-02-22T06:46:38.996Z,34.03
2023-02-22T06:47:42.354Z,35.00
2023-02-22T06:48:45.485Z,36.70
2023-02-22T06:49:54.358Z,39.75
2023-02-22T06:50:57.486Z,33.83
2023-02-22T06:52:00.719Z,38.63
2023-02-22T06:53:04.326Z,31.90
2023-02-22T06:54:07.693Z,35.75
2023-02-22T06:55:10.808Z,37.40
2023-02-22T06:56:13.933Z,33.45
2023-02-22T06:57:17.782Z,33.97
2023-02-22T06:58:20.901Z,35.88
2023-02-22T06:59:24.132Z,32.17
2023-02-22T07:00:29.315Z,31.17
2023-02-22T07:01:32.429Z,35.38
2023-02-22T07:02:35.783Z,35.15
2023-02-22T07:03:39.177Z,38.95
2023-02-22T07:04:43.644Z,26.58
2023-02-22T07:05:46.829Z,34.70
2023-02-22T07:06:50.788Z,41.70
2023-02-22T07:08:02.194Z,35.85
2023-02-22T07:09:05.312Z,39.85
2023-02-22T07:10:16.121Z,33.42
2023-02-22T07:12:22.239Z,30.23
2023-02-22T07:13:25.370Z,34.33
2023-02-22T07:14:28.251Z,38.85
2023-02-22T07:15:34.726Z,40.78
2023-02-22T07:16:37.635Z,38.85
2023-02-22T07:17:41.383Z,37.47
2023-02-22T07:18:44.091Z,39.25
2023-02-22T07:19:46.611Z,37.95
2023-02-22T07:20:49.223Z,40.22
2023-02-22T07:21:58.254Z,35.45
2023-02-22T07:23:01.472Z,36.53
2023-02-22T07:24:05.528Z,39.17
2023-02-22T07:25:10.312Z,36.65
2023-02-22T07:26:14.277Z,39.20
2023-02-22T07:27:17.826Z,43.13
2023-02-22T07:28:20.391Z,44.40
2023-02-22T07:29:23.632Z,40.70
2023-02-22T07:30:31.841Z,43.30
2023-02-22T07:31:38.394Z,41.78
2023-02-22T07:32:42.940Z,44.55
2023-02-22T07:33:48.955Z,36.90
2023-02-22T07:34:51.596Z,39.30
2023-02-22T07:35:54.238Z,39.47
2023-02-22T07:36:56.766Z,48.95
2023-02-22T07:37:59.517Z,37.00
2023-02-22T07:39:02.066Z,36.92
2023-02-22T07:40:04.924Z,34.40
2023-02-22T07:41:07.766Z,38.85
2023-02-22T07:42:10.440Z,36.92
2023-02-22T07:43:20.401Z,41.35
2023-02-22T07:44:22.923Z,41.25
2023-02-22T07:45:33.483Z,39.92
2023-02-22T07:46:36.003Z,36.80
2023-02-22T07:47:38.646Z,45.20
2023-02-22T07:48:41.764Z,39.33
2023-02-22T07:49:44.383Z,40.72
2023-02-22T07:50:47.386Z,39.60
2023-02-22T07:51:50.067Z,42.22
2023-02-22T07:52:55.704Z,36.70
2023-02-22T07:53:58.210Z,40.55
2023-02-22T07:55:00.849Z,42.22
2023-02-22T07:56:05.789Z,39.30
2023-02-22T07:57:08.534Z,40.30
2023-02-22T07:58:15.262Z,41.42
2023-02-22T07:59:18.022Z,41.35
2023-02-22T08:00:30.374Z,45.08
2023-02-22T08:01:32.894Z,40.53
2023-02-22T08:02:35.616Z,37.97
2023-02-22T08:03:38.411Z,35.53
2023-02-22T08:04:40.937Z,40.20
2023-02-22T08:05:47.063Z,47.05
2023-02-22T08:06:50.306Z,40.58
2023-02-22T08:07:52.825Z,42.53
2023-02-22T08:08:55.343Z,37.60
2023-02-22T08:09:57.857Z,37.97
2023-02-22T08:11:00.385Z,40.95
2023-02-22T08:12:02.903Z,33.50
2023-02-22T08:13:06.056Z,37.20
2023-02-22T08:14:08.659Z,39.28
2023-02-22T08:15:18.272Z,37.58
2023-02-22T08:16:20.789Z,36.53
2023-02-22T08:17:23.426Z,36.08
2023-02-22T08:18:26.306Z,35.47
2023-02-22T08:19:28.830Z,34.10
2023-02-22T08:20:31.711Z,31.95
2023-02-22T08:21:34.359Z,29.83
2023-02-22T08:22:36.879Z,35.55
2023-02-22T08:23:39.396Z,29.52
2023-02-22T08:24:41.923Z,30.63
2023-02-22T08:25:44.687Z,33.17
2023-02-22T08:26:47.563Z,37.42
2023-02-22T08:27:50.325Z,38.17
2023-02-22T08:28:52.970Z,34.20
2023-02-22T08:29:56.693Z,35.25
2023-02-22T08:30:59.835Z,30.17
2023-02-22T08:32:03.495Z,31.98
2023-02-22T08:33:06.846Z,29.00
2023-02-22T08:34:09.775Z,29.92
2023-02-22T08:35:14.098Z,30.50
2023-02-22T08:36:18.782Z,33.78
2023-02-22T08:37:21.661Z,31.10
2023-02-22T08:38:28.160Z,34.00
2023-02-22T08:39:31.264Z,32.63
2023-02-22T08:40:37.282Z,29.70
2023-02-22T08:41:40.395Z,33.58
2023-02-22T08:42:44.358Z,25.67
2023-02-22T08:43:47.471Z,32.22
2023-02-22T08:44:50.599Z,32.97
2023-02-22T08:45:56.184Z,30.58
2023-02-22T08:47:00.434Z,30.70
2023-02-22T08:48:04.161Z,31.52
2023-02-22T08:49:09.196Z,32.63
2023-02-22T08:50:19.657Z,27.02
2023-02-22T08:51:22.886Z,29.08
2023-02-22T08:52:26.000Z,32.65
2023-02-22T08:53:29.256Z,31.33
2023-02-22T08:54:32.726Z,29.65
2023-02-22T08:55:38.006Z,34.92
2023-02-22T08:56:41.132Z,31.73
2023-02-22T08:57:44.248Z,30.08
2023-02-22T08:58:47.375Z,33.67
2023-02-22T08:59:50.610Z,29.50
2023-02-22T09:00:54.456Z,30.83
2023-02-22T09:01:57.581Z,29.70
2023-02-22T09:03:02.743Z,32.95
2023-02-22T09:04:06.097Z,30.02
2023-02-22T09:05:09.458Z,29.75
2023-02-22T09:06:12.833Z,35.42
2023-02-22T09:07:17.866Z,32.53
2023-02-22T09:08:21.826Z,29.27
2023-02-22T09:09:25.545Z,31.52
2023-02-22T09:10:31.430Z,27.70
2023-02-22T09:11:34.673Z,29.42
2023-02-22T09:12:38.030Z,27.23
2023-02-22T09:13:41.031Z,30.75
2023-02-22T09:14:44.038Z,37.50
2023-02-22T09:15:47.402Z,30.08
2023-02-22T09:16:50.652Z,27.65
2023-02-22T09:17:54.363Z,27.67
2023-02-22T09:18:57.239Z,39.20
2023-02-22T09:20:00.182Z,27.65
2023-02-22T09:21:03.971Z,27.45
2023-02-22T09:22:06.741Z,28.60
2023-02-22T09:23:10.020Z,29.92
2023-02-22T09:24:12.785Z,32.90
2023-02-22T09:25:17.509Z,32.47
2023-02-22T09:26:20.706Z,32.88
2023-02-22T09:27:23.466Z,33.08
2023-02-22T09:28:29.142Z,30.85
2023-02-22T09:29:31.942Z,30.33
2023-02-22T09:30:36.547Z,29.48
2023-02-22T09:31:41.048Z,28.67
2023-02-22T09:32:43.853Z,29.77
2023-02-22T09:33:47.494Z,29.10
2023-02-22T09:34:52.388Z,28.10
2023-02-22T09:35:55.026Z,29.38
2023-02-22T09:36:58.415Z,29.00
2023-02-22T09:38:02.073Z,33.17
2023-02-22T09:39:05.233Z,33.50
2023-02-22T09:40:12.190Z,30.10
2023-02-22T09:41:34.619Z,28.45
2023-02-22T09:42:46.992Z,30.27
2023-02-22T09:45:13.002Z,32.75
2023-02-22T09:46:26.836Z,30.40
2023-02-22T09:47:56.515Z,33.25
2023-02-22T09:49:16.617Z,28.85
2023-02-22T09:50:26.850Z,29.30
2023-02-22T09:51:39.196Z,28.58
2023-02-22T09:52:54.323Z,29.27
2023-02-22T09:54:01.412Z,27.60
2023-02-22T09:55:36.323Z,30.75
2023-02-22T09:56:39.690Z,31.30
2023-02-22T09:57:44.245Z,30.17
2023-02-22T09:58:55.523Z,34.72
2023-02-22T10:00:13.423Z,34.70
2023-02-22T10:01:39.821Z,33.47
2023-02-22T10:03:10.548Z,30.90
2023-02-22T10:04:41.519Z,34.72
2023-02-22T10:05:54.451Z,29.92
2023-02-22T10:07:26.148Z,34.47
2023-02-22T10:08:35.855Z,34.33
2023-02-22T10:09:42.850Z,34.47
2023-02-22T10:10:52.661Z,29.98
2023-02-22T10:12:27.573Z,33.97
2023-02-22T10:13:48.815Z,31.95
2023-02-22T10:15:25.208Z,38.42
2023-02-22T10:17:06.578Z,44.13
2023-02-22T10:20:06.949Z,51.65
2023-02-22T10:21:28.078Z,66.28
2023-02-22T10:23:55.071Z,55.67
2023-02-22T10:25:04.959Z,46.97
2023-02-22T10:26:20.305Z,44.35
2023-02-22T10:27:28.441Z,48.35
2023-02-22T10:28:39.717Z,46.35
2023-02-22T10:29:47.090Z,45.72
2023-02-22T10:30:59.307Z,52.42
2023-02-22T10:32:05.493Z,47.65
2023-02-22T10:33:15.374Z,51.03
2023-02-22T10:34:26.769Z,48.03
2023-02-22T10:35:38.774Z,44.13
2023-02-22T10:36:46.336Z,47.55
2023-02-22T10:37:54.495Z,45.33
2023-02-22T10:39:12.502Z,48.70
2023-02-22T10:40:23.793Z,48.72
2023-02-22T10:41:38.427Z,49.50
2023-02-22T10:42:41.545Z,43.15
2023-02-22T10:43:44.791Z,39.50
2023-02-22T10:44:48.152Z,47.05
2023-02-22T10:45:58.392Z,40.95
2023-02-22T10:47:04.600Z,39.55
2023-02-22T10:48:12.394Z,40.60
2023-02-22T10:49:23.798Z,45.03
2023-02-22T10:50:31.969Z,42.83
2023-02-22T10:51:35.679Z,41.17
2023-02-22T10:52:38.800Z,42.85
2023-02-22T10:53:41.945Z,43.25
2023-02-22T10:54:48.886Z,43.63
2023-02-22T10:56:21.891Z,39.95
2023-02-22T10:57:37.009Z,38.17
2023-02-22T10:58:46.495Z,42.83
2023-02-22T10:59:49.979Z,43.75
2023-02-22T11:00:53.215Z,37.88
2023-02-22T11:01:56.457Z,37.92
2023-02-22T11:03:02.216Z,35.25
2023-02-22T11:04:18.066Z,34.58
2023-02-22T11:05:37.265Z,34.40
2023-02-22T11:06:43.145Z,36.80
2023-02-22T11:07:46.266Z,32.65
2023-02-22T11:08:52.273Z,36.53
2023-02-22T11:09:57.435Z,36.78
2023-02-22T11:11:21.070Z,32.40
2023-02-22T11:12:34.517Z,37.58
2023-02-22T11:13:41.126Z,31.48
2023-02-22T11:14:44.356Z,30.45
2023-02-22T11:15:47.478Z,35.97
2023-02-22T11:16:53.884Z,36.17
2023-02-22T11:17:59.123Z,35.22
2023-02-22T11:19:07.890Z,30.40
2023-02-22T11:20:34.813Z,38.38
2023-02-22T11:21:37.928Z,35.53
2023-02-22T11:22:42.927Z,27.98
2023-02-22T11:23:46.291Z,34.47
2023-02-22T11:25:01.466Z,34.38
2023-02-22T11:26:22.467Z,30.52
2023-02-22T11:28:37.435Z,32.00
2023-02-22T11:29:40.232Z,28.35
2023-02-22T11:30:47.269Z,32.08
2023-02-22T11:31:50.768Z,32.53
2023-02-22T11:33:17.099Z,27.92
2023-02-22T11:34:34.477Z,30.23
2023-02-22T11:35:39.632Z,31.98
2023-02-22T11:36:43.313Z,30.85
2023-02-22T11:37:45.870Z,29.73
2023-02-22T11:38:58.717Z,27.52
2023-02-22T11:40:19.746Z,30.85
2023-02-22T11:41:28.794Z,30.23
2023-02-22T11:42:31.234Z,29.17
2023-02-22T11:43:34.480Z,30.05
2023-02-22T11:44:37.117Z,26.38
2023-02-22T11:45:44.174Z,31.48
2023-02-22T11:46:50.368Z,26.45
2023-02-22T11:47:56.438Z,28.25
2023-02-22T11:49:04.726Z,27.50
2023-02-22T11:50:17.318Z,29.55
2023-02-22T11:51:38.319Z,26.10
2023-02-22T11:52:46.482Z,30.20
2023-02-22T11:54:22.483Z,26.23
2023-02-22T11:55:42.725Z,25.42
2023-02-22T11:58:04.721Z,31.15
2023-02-22T11:59:34.842Z,32.45
2023-02-22T12:00:43.617Z,25.35
2023-02-22T12:01:52.492Z,28.88
2023-02-22T12:03:17.342Z,27.80
2023-02-22T12:04:25.683Z,28.85
2023-02-22T12:05:44.570Z,26.88
2023-02-22T12:07:42.416Z,26.83
2023-02-22T12:09:06.652Z,31.63
2023-02-22T12:10:35.814Z,25.75
2023-02-22T12:11:59.937Z,27.50
2023-02-22T12:13:36.892Z,26.88
2023-02-22T12:15:03.416Z,27.38
2023-02-22T12:16:15.150Z,27.67
2023-02-22T12:17:43.617Z,32.40
2023-02-22T12:18:50.819Z,28.50
2023-02-22T12:20:18.923Z,25.98
2023-02-22T12:21:24.547Z,24.63
2023-02-22T12:22:34.681Z,26.00
2023-02-22T12:23:37.143Z,25.42
2023-02-22T12:25:10.483Z,23.73
2023-02-22T12:26:16.801Z,26.80
2023-02-22T12:27:27.406Z,28.17
2023-02-22T12:28:47.784Z,27.13
2023-02-22T12:29:57.930Z,27.65
2023-02-22T12:31:15.127Z,25.23
2023-02-22T12:32:44.132Z,22.15
2023-02-22T12:34:01.163Z,23.17
2023-02-22T12:35:13.527Z,22.85
2023-02-22T12:36:20.968Z,22.38
2023-02-22T12:37:44.250Z,22.27
2023-02-22T12:38:55.095Z,22.65
2023-02-22T12:41:10.302Z,26.13
2023-02-22T12:42:25.178Z,22.02
2023-02-22T12:43:35.503Z,22.77
2023-02-22T12:44:42.224Z,22.92
2023-02-22T12:45:53.269Z,27.25
2023-02-22T12:47:00.350Z,25.73
2023-02-22T12:48:40.797Z,22.10
2023-02-22T12:49:52.551Z,18.05
2023-02-22T12:51:18.300Z,21.58
2023-02-22T12:52:37.801Z,21.27
2023-02-22T12:53:44.761Z,19.90
2023-02-22T12:55:06.364Z,24.55
2023-02-22T12:56:50.653Z,20.27
2023-02-22T12:58:09.727Z,19.70
2023-02-22T12:59:25.937Z,24.95
2023-02-22T13:00:54.498Z,20.13
2023-02-22T13:02:04.936Z,24.45
2023-02-22T13:03:34.098Z,21.13
2023-02-22T13:04:37.336Z,25.60
2023-02-22T13:05:41.903Z,26.02
2023-02-22T13:06:57.620Z,25.20
2023-02-22T13:08:17.303Z,22.02
2023-02-22T13:10:07.946Z,24.17
2023-02-22T13:11:17.309Z,24.70
2023-02-22T13:12:52.294Z,24.98
2023-02-22T13:14:23.436Z,24.83
2023-02-22T13:15:34.836Z,21.08
2023-02-22T13:16:53.196Z,21.85
2023-02-22T13:18:25.897Z,20.02
2023-02-22T13:19:49.601Z,19.85
2023-02-22T13:21:01.257Z,21.42
2023-02-22T13:22:14.807Z,18.05
2023-02-22T13:23:54.167Z,23.65
2023-02-22T13:25:18.590Z,18.77
2023-02-22T13:26:47.812Z,21.38
2023-02-22T13:28:10.013Z,24.20
2023-02-22T13:29:19.803Z,19.83
2023-02-22T13:30:50.457Z,17.85
2023-02-22T13:32:13.304Z,18.63
2023-02-22T13:33:40.391Z,18.80
2023-02-22T13:35:01.099Z,19.15
2023-02-22T13:36:30.668Z,21.25
2023-02-22T13:37:54.434Z,23.25
2023-02-22T13:39:18.854Z,22.95
2023-02-22T13:40:36.624Z,21.08
2023-02-22T13:42:06.314Z,24.55
2023-02-22T13:44:02.000Z,21.15
2023-02-22T13:45:35.286Z,19.60
2023-02-22T13:47:04.435Z,21.85
2023-02-22T13:48:22.304Z,25.50
2023-02-22T13:49:30.121Z,21.02
2023-02-22T13:51:09.448Z,23.67
2023-02-22T13:52:20.497Z,22.98
2023-02-22T13:53:30.723Z,23.25
2023-02-22T13:54:40.773Z,21.00
2023-02-22T13:55:52.199Z,21.48
2023-02-22T13:56:56.888Z,20.45
2023-02-22T13:58:05.902Z,19.40
2023-02-22T13:59:28.448Z,21.15
2023-02-22T14:00:47.051Z,21.73
2023-02-22T14:01:53.082Z,20.58
2023-02-22T14:03:08.311Z,27.70
2023-02-22T14:04:27.609Z,22.42
2023-02-22T14:05:45.093Z,21.33
2023-02-22T14:06:47.770Z,25.33
2023-02-22T14:07:50.429Z,17.90
2023-02-22T14:08:53.170Z,17.98
2023-02-22T14:09:57.736Z,24.58
2023-02-22T14:11:27.736Z,22.80
2023-02-22T14:12:30.263Z,20.60
2023-02-22T14:14:10.943Z,20.35
2023-02-22T14:15:28.569Z,19.85
2023-02-22T14:16:33.930Z,20.58
2023-02-22T14:17:46.934Z,17.90
2023-02-22T14:19:01.341Z,19.77
2023-02-22T14:20:32.545Z,21.55
2023-02-22T14:21:35.781Z,20.10
2023-02-22T14:22:38.432Z,21.25
2023-02-22T14:23:49.818Z,21.35
2023-02-22T14:24:52.351Z,18.85
2023-02-22T14:25:56.070Z,19.65
2023-02-22T14:27:03.522Z,23.00
2023-02-22T14:28:09.027Z,19.10
2023-02-22T14:29:18.046Z,23.83
2023-02-22T14:30:38.609Z,18.35
2023-02-22T14:31:41.157Z,23.38
2023-02-22T14:32:43.977Z,23.05
2023-02-22T14:33:59.213Z,17.73
2023-02-22T14:35:25.481Z,21.13
2023-02-22T14:36:36.164Z,19.33
2023-02-22T14:37:43.600Z,22.17
2023-02-22T14:38:47.702Z,21.48
2023-02-22T14:39:54.416Z,19.25
2023-02-22T14:41:00.888Z,20.95
2023-02-22T14:42:07.404Z,19.13
2023-02-22T14:43:19.997Z,19.52
2023-02-22T14:44:28.253Z,20.75
2023-02-22T14:45:36.942Z,21.67
2023-02-22T14:46:43.154Z,24.40
2023-02-22T14:48:21.180Z,21.17
2023-02-22T14:49:28.862Z,21.48
2023-02-22T14:50:45.439Z,19.13
2023-02-22T14:52:05.345Z,20.33
2023-02-22T14:53:34.989Z,21.38
2023-02-22T14:54:59.114Z,21.20